createdAt,value
2019-02-25T00:01:28.294Z,85.49
2019-02-25T00:03:57.962Z,85.88
2019-02-25T00:06:27.907Z,86.00
2019-02-25T00:08:58.642Z,85.85
2019-02-25T00:11:28.858Z,85.99
2019-02-25T00:13:59.011Z,86.08
2019-02-25T00:16:29.314Z,86.08
2019-02-25T00:19:00.398Z,86.32
2019-02-25T00:21:35.289Z,86.09
2019-02-25T00:24:05.504Z,86.26
2019-02-25T00:26:39.790Z,86.08
2019-02-25T00:29:09.951Z,86.31
2019-02-25T00:31:40.186Z,86.34
2019-02-25T00:34:13.582Z,86.20
2019-02-25T00:36:44.103Z,86.09
2019-02-25T00:39:15.815Z,86.04
2019-02-25T00:41:45.530Z,86.17
2019-02-25T00:44:15.649Z,86.17
2019-02-25T00:46:49.858Z,85.81
2019-02-25T00:49:22.718Z,85.73
2019-02-25T00:51:53.473Z,85.53
2019-02-25T00:54:23.912Z,85.42
2019-02-25T00:56:54.232Z,85.18
2019-02-25T00:59:24.279Z,85.16
2019-02-25T01:01:54.497Z,85.16
2019-02-25T01:04:24.600Z,85.09
2019-02-25T01:06:55.313Z,85.15
2019-02-25T01:09:25.263Z,85.21
2019-02-25T01:11:55.188Z,85.27
2019-02-25T01:14:25.381Z,85.30
2019-02-25T01:16:55.635Z,85.41
2019-02-25T01:19:26.568Z,85.44
2019-02-25T01:21:56.793Z,85.52
2019-02-25T01:24:26.893Z,85.54
2019-02-25T01:26:57.134Z,85.64
2019-02-25T01:29:27.458Z,85.86
2019-02-25T01:31:57.742Z,85.94
2019-02-25T01:34:27.703Z,86.18
2019-02-25T01:36:57.828Z,86.23
2019-02-25T01:39:27.849Z,86.23
2019-02-25T01:41:58.049Z,86.32
2019-02-25T01:44:28.121Z,86.11
2019-02-25T01:46:57.964Z,86.27
2019-02-25T01:49:28.077Z,86.13
2019-02-25T01:51:58.835Z,86.32
2019-02-25T01:54:29.073Z,86.41
2019-02-25T01:56:59.249Z,85.93
2019-02-25T01:59:29.305Z,85.80
2019-02-25T02:01:59.604Z,85.97
2019-02-25T02:04:30.365Z,85.95
2019-02-25T02:07:00.459Z,85.92
2019-02-25T02:09:30.660Z,85.93
2019-02-25T02:12:00.736Z,85.59
2019-02-25T02:14:30.784Z,85.39
2019-02-25T02:17:01.077Z,85.53
2019-02-25T02:19:31.137Z,85.50
2019-02-25T02:22:01.370Z,85.50
2019-02-25T02:24:31.573Z,85.63
2019-02-25T02:27:01.776Z,85.50
2019-02-25T02:29:31.848Z,85.39
2019-02-25T02:32:02.611Z,85.32
2019-02-25T02:34:32.883Z,85.21
2019-02-25T02:37:02.941Z,85.30
2019-02-25T02:39:33.201Z,85.16
2019-02-25T02:42:31.569Z,85.05
2019-02-25T02:45:25.702Z,84.81
2019-02-25T02:48:01.517Z,84.83
2019-02-25T02:50:31.991Z,84.83
2019-02-25T02:53:02.031Z,84.84
2019-02-25T02:55:32.296Z,84.94
2019-02-25T02:58:02.532Z,84.87
2019-02-25T03:00:33.116Z,84.86
2019-02-25T03:03:04.037Z,84.96
2019-02-25T03:05:34.385Z,84.82
2019-02-25T03:08:05.193Z,84.73
2019-02-25T03:10:35.262Z,84.38
2019-02-25T03:13:06.010Z,84.61
2019-02-25T03:15:35.999Z,84.51
2019-02-25T03:18:06.099Z,84.44
2019-02-25T03:20:36.472Z,84.26
2019-02-25T03:23:06.581Z,84.27
2019-02-25T03:25:37.079Z,84.16
2019-02-25T03:28:07.278Z,84.13
2019-02-25T03:30:37.340Z,84.19
2019-02-25T03:33:07.780Z,83.94
2019-02-25T03:35:37.820Z,83.92
2019-02-25T03:38:08.084Z,83.81
2019-02-25T03:40:38.035Z,83.63
2019-02-25T03:43:08.420Z,83.62
2019-02-25T03:45:38.537Z,83.46
2019-02-25T03:48:09.446Z,83.43
2019-02-25T03:50:39.392Z,83.27
2019-02-25T03:53:09.627Z,83.15
2019-02-25T03:55:39.943Z,82.93
2019-02-25T03:58:10.165Z,82.83
2019-02-25T04:00:40.295Z,82.88
2019-02-25T04:03:10.446Z,82.74
2019-02-25T04:05:40.639Z,82.63
2019-02-25T04:08:10.931Z,82.61
2019-02-25T04:10:41.063Z,82.48
2019-02-25T04:13:11.324Z,82.69
2019-02-25T04:15:43.695Z,82.68
2019-02-25T04:18:13.981Z,82.73
2019-02-25T04:20:44.162Z,82.74
2019-02-25T04:23:14.399Z,82.79
2019-02-25T04:25:44.805Z,82.84
2019-02-25T04:28:15.227Z,82.98
2019-02-25T04:30:45.319Z,83.07
2019-02-25T04:33:15.602Z,83.21
2019-02-25T04:35:45.855Z,83.13
2019-02-25T04:38:16.082Z,83.13
2019-02-25T04:40:46.628Z,83.06
2019-02-25T04:43:16.990Z,83.08
2019-02-25T04:45:47.541Z,82.93
2019-02-25T04:48:17.912Z,82.64
2019-02-25T04:50:48.030Z,82.57
2019-02-25T04:53:18.377Z,81.80
2019-02-25T04:55:48.594Z,82.37
2019-02-25T04:58:19.013Z,82.35
2019-02-25T05:00:49.806Z,82.18
2019-02-25T05:03:20.344Z,82.05
2019-02-25T05:05:50.400Z,81.94
2019-02-25T05:08:20.651Z,81.61
2019-02-25T05:10:51.537Z,81.14
2019-02-25T05:13:23.727Z,81.36
2019-02-25T05:15:54.384Z,81.16
2019-02-25T05:18:24.541Z,80.88
2019-02-25T05:20:54.910Z,80.71
2019-02-25T05:23:25.143Z,80.40
2019-02-25T05:25:56.030Z,80.50
2019-02-25T05:28:27.028Z,80.08
2019-02-25T05:30:57.473Z,80.44
2019-02-25T05:33:31.183Z,80.00
2019-02-25T05:36:01.719Z,79.83
2019-02-25T05:38:32.465Z,79.60
2019-02-25T05:41:02.577Z,79.74
2019-02-25T05:43:33.158Z,78.81
2019-02-25T05:46:03.509Z,79.64
2019-02-25T05:48:33.635Z,79.67
2019-02-25T05:51:04.253Z,79.32
2019-02-25T05:53:34.462Z,78.78
2019-02-25T05:56:05.035Z,79.28
2019-02-25T05:58:35.347Z,78.78
2019-02-25T06:01:05.682Z,78.72
2019-02-25T06:03:36.393Z,78.67
2019-02-25T06:06:06.622Z,78.25
2019-02-25T06:08:37.282Z,77.37
2019-02-25T06:11:07.383Z,77.44
2019-02-25T06:13:37.605Z,77.53
2019-02-25T06:16:07.703Z,77.11
2019-02-25T06:18:37.824Z,76.80
2019-02-25T06:21:08.118Z,77.25
2019-02-25T06:23:38.562Z,77.23
2019-02-25T06:26:08.812Z,76.86
2019-02-25T06:28:38.957Z,76.68
2019-02-25T06:31:09.227Z,76.23
2019-02-25T06:33:39.885Z,76.19
2019-02-25T06:36:10.057Z,75.97
2019-02-25T06:38:40.023Z,76.04
2019-02-25T06:41:09.980Z,75.82
2019-02-25T06:43:40.508Z,75.25
2019-02-25T06:46:11.271Z,74.85
2019-02-25T06:48:41.279Z,74.66
2019-02-25T06:51:11.908Z,74.52
2019-02-25T06:53:42.216Z,74.28
2019-02-25T06:56:12.766Z,73.37
2019-02-25T06:58:42.795Z,72.94
2019-02-25T07:01:13.110Z,72.01
2019-02-25T07:03:45.186Z,72.52
2019-02-25T07:06:22.990Z,72.32
2019-02-25T07:09:25.491Z,71.79
2019-02-25T07:12:12.119Z,71.43
2019-02-25T07:14:51.195Z,70.98
2019-02-25T07:17:50.016Z,70.60
2019-02-25T07:20:28.907Z,70.31
2019-02-25T07:23:18.896Z,70.43
2019-02-25T07:26:07.433Z,69.99
2019-02-25T07:28:59.908Z,69.77
2019-02-25T07:31:56.127Z,70.13
2019-02-25T07:35:01.105Z,70.07
2019-02-25T07:37:55.112Z,69.89
2019-02-25T07:40:43.083Z,69.66
2019-02-25T07:43:33.836Z,69.36
2019-02-25T07:46:29.119Z,69.47
2019-02-25T07:49:09.300Z,68.80
2019-02-25T07:51:59.563Z,69.13
2019-02-25T07:54:47.313Z,69.30
2019-02-25T08:00:14.177Z,68.80
2019-02-25T08:02:59.370Z,69.10
2019-02-25T08:06:01.612Z,69.28
2019-02-25T08:08:42.749Z,69.06
2019-02-25T08:11:30.975Z,69.07
2019-02-25T08:14:15.526Z,68.99
2019-02-25T08:17:14.020Z,68.99
2019-02-25T08:19:56.998Z,68.93
2019-02-25T08:22:44.956Z,69.01
2019-02-25T08:25:36.447Z,69.13
2019-02-25T08:28:25.001Z,69.22
2019-02-25T08:31:24.977Z,69.36
2019-02-25T08:34:18.758Z,69.49
2019-02-25T08:38:05.882Z,69.43
2019-02-25T08:41:18.287Z,69.82
2019-02-25T08:44:07.379Z,69.68
2019-02-25T08:47:09.417Z,69.61
2019-02-25T08:49:44.140Z,69.23
2019-02-25T08:52:14.536Z,68.63
2019-02-25T08:54:45.079Z,68.55
2019-02-25T08:57:15.558Z,68.27
2019-02-25T08:59:46.916Z,68.28
2019-02-25T09:02:17.381Z,67.16
2019-02-25T09:04:49.232Z,67.03
2019-02-25T09:07:19.854Z,67.21
2019-02-25T09:09:50.704Z,67.13
2019-02-25T09:12:20.889Z,66.98
2019-02-25T09:14:51.149Z,66.90
2019-02-25T09:17:22.110Z,66.58
2019-02-25T09:19:52.307Z,66.11
2019-02-25T09:22:22.519Z,65.69
2019-02-25T09:24:52.905Z,65.68
2019-02-25T09:27:23.005Z,65.04
2019-02-25T09:29:53.365Z,65.23
2019-02-25T09:32:23.896Z,65.48
2019-02-25T09:34:54.054Z,65.65
2019-02-25T09:37:24.309Z,65.29
2019-02-25T09:39:54.496Z,65.53
2019-02-25T09:42:24.723Z,65.86
2019-02-25T09:44:54.930Z,65.98
2019-02-25T09:47:25.156Z,65.81
2019-02-25T09:49:55.430Z,65.83
2019-02-25T09:52:25.539Z,66.11
2019-02-25T09:54:55.696Z,65.92
2019-02-25T09:57:26.267Z,65.44
2019-02-25T09:59:56.778Z,64.86
2019-02-25T10:02:27.094Z,64.85
2019-02-25T10:04:57.509Z,64.81
2019-02-25T10:07:27.670Z,64.61
2019-02-25T10:09:57.966Z,65.04
2019-02-25T10:12:28.520Z,65.72
2019-02-25T10:14:59.095Z,66.05
2019-02-25T10:17:30.066Z,66.29
2019-02-25T10:20:00.458Z,66.48
2019-02-25T10:22:32.739Z,67.02
2019-02-25T10:25:03.212Z,67.47
2019-02-25T10:27:33.401Z,67.65
2019-02-25T10:30:04.832Z,67.99
2019-02-25T10:32:35.084Z,72.66
2019-02-25T10:35:06.957Z,69.93
2019-02-25T10:37:38.658Z,69.98
2019-02-25T10:40:10.410Z,70.20
2019-02-25T10:42:40.679Z,70.04
2019-02-25T10:45:13.629Z,70.27
2019-02-25T10:47:44.334Z,69.76
2019-02-25T10:50:16.383Z,69.42
2019-02-25T10:52:49.530Z,68.45
2019-02-25T10:55:32.364Z,68.01
2019-02-25T10:58:03.798Z,67.77
2019-02-25T11:00:35.290Z,67.96
2019-02-25T11:03:06.901Z,67.98
2019-02-25T11:05:37.436Z,67.40
2019-02-25T11:08:12.037Z,67.28
2019-02-25T11:10:50.857Z,67.05
2019-02-25T11:13:22.617Z,67.04
2019-02-25T11:15:52.904Z,67.67
2019-02-25T11:18:24.551Z,67.67
2019-02-25T11:20:55.721Z,67.94
2019-02-25T11:23:26.063Z,68.10
2019-02-25T11:25:57.906Z,67.60
2019-02-25T11:28:28.657Z,67.82
2019-02-25T11:30:58.655Z,67.46
2019-02-25T11:33:30.271Z,67.12
2019-02-25T11:36:01.370Z,66.96
2019-02-25T11:38:35.468Z,67.12
2019-02-25T11:41:04.801Z,66.88
2019-02-25T11:43:35.940Z,66.33
2019-02-25T11:46:06.123Z,66.49
2019-02-25T11:48:36.345Z,66.73
2019-02-25T11:51:07.361Z,66.85
2019-02-25T11:53:37.921Z,66.60
2019-02-25T11:56:07.891Z,66.68
2019-02-25T11:58:38.315Z,66.57
2019-02-25T12:01:08.728Z,67.05
2019-02-25T12:03:39.257Z,67.67
2019-02-25T12:06:09.579Z,68.01
2019-02-25T12:08:40.633Z,68.30
2019-02-25T12:11:10.827Z,68.90
2019-02-25T12:13:41.000Z,68.99
2019-02-25T12:16:11.378Z,68.71
2019-02-25T12:18:41.557Z,68.76
2019-02-25T12:21:11.582Z,69.01
2019-02-25T12:23:41.824Z,69.02
2019-02-25T12:26:12.479Z,69.29
2019-02-25T12:28:42.717Z,69.27
2019-02-25T12:31:13.231Z,69.45
2019-02-25T12:33:44.180Z,69.50
2019-02-25T12:36:14.750Z,69.84
2019-02-25T12:38:45.223Z,70.17
2019-02-25T12:41:16.121Z,70.44
2019-02-25T12:43:46.288Z,70.70
2019-02-25T12:46:16.362Z,70.74
2019-02-25T12:48:46.753Z,71.07
2019-02-25T12:51:16.996Z,71.26
2019-02-25T12:53:48.163Z,71.13
2019-02-25T12:56:18.558Z,71.63
2019-02-25T12:58:52.237Z,71.96
2019-02-25T13:01:23.328Z,71.96
2019-02-25T13:03:53.929Z,73.24
2019-02-25T13:06:24.322Z,73.21
2019-02-25T13:08:55.119Z,73.63
2019-02-25T13:11:25.574Z,73.41
2019-02-25T13:13:56.086Z,73.20
2019-02-25T13:16:26.527Z,73.96
2019-02-25T13:18:57.021Z,75.71
2019-02-25T13:21:28.137Z,74.99
2019-02-25T13:23:59.441Z,75.11
2019-02-25T13:26:32.251Z,75.05
2019-02-25T13:29:04.416Z,74.65
2019-02-25T13:31:35.660Z,74.84
2019-02-25T13:34:06.267Z,74.69
2019-02-25T13:36:37.173Z,74.37
2019-02-25T13:39:08.502Z,74.60
2019-02-25T13:41:39.512Z,74.49
2019-02-25T13:44:09.868Z,74.75
2019-02-25T13:46:40.539Z,74.61
2019-02-25T13:49:11.774Z,74.92
2019-02-25T13:51:41.824Z,74.60
2019-02-25T13:54:12.664Z,75.13
2019-02-25T13:56:43.256Z,75.40
2019-02-25T13:59:13.886Z,75.59
2019-02-25T14:01:44.592Z,75.74
2019-02-25T14:04:15.199Z,75.91
2019-02-25T14:06:45.660Z,75.76
2019-02-25T14:09:16.387Z,75.34
2019-02-25T14:11:48.767Z,75.23
2019-02-25T14:14:20.752Z,75.37
2019-02-25T14:16:51.811Z,75.08
2019-02-25T14:19:22.186Z,75.57
2019-02-25T14:21:52.611Z,75.42
2019-02-25T14:24:23.433Z,75.75
2019-02-25T14:26:54.619Z,75.58
2019-02-25T14:29:26.437Z,75.95
2019-02-25T14:31:57.203Z,75.96
2019-02-25T14:34:27.825Z,76.42
2019-02-25T14:36:59.716Z,76.77
2019-02-25T14:39:32.727Z,76.36
2019-02-25T14:42:04.395Z,76.64
2019-02-25T14:44:37.631Z,76.88
2019-02-25T14:47:19.538Z,77.08
2019-02-25T14:49:41.066Z,77.22
2019-02-25T14:52:12.314Z,77.03
2019-02-25T14:54:42.685Z,77.29
2019-02-25T14:57:13.394Z,77.20
2019-02-25T14:59:45.430Z,77.35
2019-02-25T15:02:16.414Z,77.22
2019-02-25T15:04:46.703Z,77.63
2019-02-25T15:07:17.017Z,77.37
2019-02-25T15:09:48.134Z,77.66
2019-02-25T15:12:20.622Z,77.76
2019-02-25T15:14:51.189Z,78.37
2019-02-25T15:17:21.711Z,78.69
2019-02-25T15:19:52.267Z,78.44
2019-02-25T15:22:23.170Z,78.33
2019-02-25T15:24:54.642Z,78.24
2019-02-25T15:27:25.835Z,78.75
2019-02-25T15:29:56.359Z,79.31
2019-02-25T15:32:26.913Z,79.08
2019-02-25T15:34:57.340Z,79.12
2019-02-25T15:37:27.884Z,78.86
2019-02-25T15:39:57.844Z,79.18
2019-02-25T15:42:29.771Z,79.08
2019-02-25T15:45:00.429Z,78.93
2019-02-25T15:47:31.457Z,79.07
2019-02-25T15:50:03.985Z,78.81
2019-02-25T15:52:39.990Z,78.57
2019-02-25T15:55:08.577Z,78.69
2019-02-25T15:57:40.097Z,78.87
2019-02-25T16:00:13.969Z,79.06
2019-02-25T16:02:44.568Z,78.98
2019-02-25T16:05:15.269Z,78.65
2019-02-25T16:07:45.806Z,78.36
2019-02-25T16:10:16.584Z,78.15
2019-02-25T16:12:47.474Z,78.09
2019-02-25T16:15:18.151Z,77.93
2019-02-25T16:17:49.606Z,77.68
2019-02-25T16:20:21.168Z,77.97
2019-02-25T16:22:51.962Z,78.01
2019-02-25T16:25:23.063Z,78.43
2019-02-25T16:27:55.514Z,78.59
2019-02-25T16:30:28.854Z,78.72
2019-02-25T16:33:04.314Z,78.82
2019-02-25T16:35:34.851Z,78.71
2019-02-25T16:38:07.318Z,78.58
2019-02-25T16:40:40.078Z,78.73
2019-02-25T16:43:12.755Z,78.72
2019-02-25T16:45:45.295Z,78.91
2019-02-25T16:48:17.236Z,78.80
2019-02-25T16:50:47.993Z,78.63
2019-02-25T16:53:20.219Z,78.79
2019-02-25T16:55:51.553Z,78.93
2019-02-25T16:58:21.995Z,78.86
2019-02-25T17:00:55.992Z,78.76
2019-02-25T17:03:25.048Z,78.92
2019-02-25T17:05:55.455Z,79.26
2019-02-25T17:08:28.200Z,78.85
2019-02-25T17:11:00.019Z,78.80
2019-02-25T17:13:33.040Z,78.99
2019-02-25T17:16:04.018Z,79.06
2019-02-25T17:18:34.730Z,78.94
2019-02-25T17:21:07.675Z,78.83
2019-02-25T17:23:41.419Z,78.86
2019-02-25T17:26:17.217Z,78.86
2019-02-25T17:28:47.499Z,78.72
2019-02-25T17:31:26.207Z,78.36
2019-02-25T17:33:57.911Z,78.23
2019-02-25T17:36:36.496Z,78.22
2019-02-25T17:39:08.756Z,78.13
2019-02-25T17:41:40.412Z,78.15
2019-02-25T17:44:11.861Z,78.28
2019-02-25T17:46:43.450Z,78.40
2019-02-25T17:49:14.507Z,78.31
2019-02-25T17:51:45.504Z,78.48
2019-02-25T17:54:16.854Z,78.55
2019-02-25T17:56:47.966Z,78.45
2019-02-25T17:59:21.360Z,78.55
2019-02-25T18:02:12.966Z,78.35
2019-02-25T18:04:43.086Z,78.54
2019-02-25T18:07:13.310Z,78.59
2019-02-25T18:09:48.310Z,78.67
2019-02-25T18:12:19.084Z,78.96
2019-02-25T18:14:49.494Z,79.00
2019-02-25T18:17:21.629Z,79.36
2019-02-25T18:19:52.426Z,79.43
2019-02-25T18:22:23.991Z,79.76
2019-02-25T18:24:54.222Z,79.64
2019-02-25T18:27:25.087Z,79.16
2019-02-25T18:29:57.029Z,79.35
2019-02-25T18:32:30.334Z,79.72
2019-02-25T18:35:00.600Z,79.98
2019-02-25T18:37:31.702Z,79.89
2019-02-25T18:40:01.751Z,79.76
2019-02-25T18:42:34.254Z,80.14
2019-02-25T18:45:05.070Z,80.24
2019-02-25T18:47:35.750Z,80.50
2019-02-25T18:50:07.765Z,80.41
2019-02-25T18:52:38.557Z,80.42
2019-02-25T18:55:12.031Z,80.59
2019-02-25T18:57:43.895Z,80.50
2019-02-25T19:00:22.212Z,80.50
2019-02-25T19:02:54.049Z,80.67
2019-02-25T19:05:27.219Z,81.13
2019-02-25T19:07:57.758Z,81.31
2019-02-25T19:10:27.901Z,81.06
2019-02-25T19:12:59.128Z,80.74
2019-02-25T19:15:30.489Z,80.61
2019-02-25T19:18:00.661Z,80.51
2019-02-25T19:20:31.076Z,80.63
2019-02-25T19:23:02.781Z,80.64
2019-02-25T19:25:33.229Z,80.58
2019-02-25T19:28:03.571Z,80.52
2019-02-25T19:30:34.506Z,80.49
2019-02-25T19:33:10.867Z,80.76
2019-02-25T19:35:39.015Z,80.50
2019-02-25T19:38:10.369Z,80.46
2019-02-25T19:40:43.065Z,80.32
2019-02-25T19:43:13.350Z,80.38
2019-02-25T19:45:45.472Z,80.14
2019-02-25T19:48:15.904Z,79.96
2019-02-25T19:50:51.215Z,80.09
2019-02-25T19:53:20.277Z,80.58
2019-02-25T19:55:53.677Z,80.54
2019-02-25T19:58:24.478Z,80.48
2019-02-25T20:01:00.773Z,80.58
2019-02-25T20:03:28.943Z,80.70
2019-02-25T20:06:00.605Z,80.93
2019-02-25T20:08:31.059Z,80.88
2019-02-25T20:11:01.276Z,81.14
2019-02-25T20:13:31.610Z,81.22
2019-02-25T20:16:07.949Z,80.97
2019-02-25T20:18:35.427Z,81.08
2019-02-25T20:21:06.454Z,81.11
2019-02-25T20:23:37.247Z,81.08
2019-02-25T20:26:09.458Z,81.39
2019-02-25T20:28:41.155Z,81.45
2019-02-25T20:31:12.731Z,81.56
2019-02-25T20:33:43.408Z,81.70
2019-02-25T20:36:17.203Z,81.50
2019-02-25T20:38:45.545Z,81.49
2019-02-25T20:41:18.010Z,81.58
2019-02-25T20:43:53.227Z,81.67
2019-02-25T20:46:23.925Z,81.52
2019-02-25T20:48:53.148Z,81.60
2019-02-25T20:51:25.056Z,81.52
2019-02-25T20:53:57.168Z,81.61
2019-02-25T20:56:28.863Z,81.92
2019-02-25T20:59:01.053Z,82.04
2019-02-25T21:01:35.238Z,82.13
2019-02-25T21:04:03.457Z,82.28
2019-02-25T21:06:35.312Z,82.17
2019-02-25T21:09:06.670Z,82.02
2019-02-25T21:11:37.908Z,82.00
2019-02-25T21:14:07.922Z,82.03
2019-02-25T21:16:38.057Z,82.03
2019-02-25T21:19:10.252Z,81.88
2019-02-25T21:21:40.024Z,81.87
2019-02-25T21:24:11.872Z,81.63
2019-02-25T21:26:42.366Z,81.70
2019-02-25T21:29:12.710Z,81.60
2019-02-25T21:31:45.319Z,81.65
2019-02-25T21:34:17.752Z,81.58
2019-02-25T21:36:46.592Z,81.59
2019-02-25T21:39:17.474Z,81.26
2019-02-25T21:41:48.684Z,81.27
2019-02-25T21:44:21.273Z,81.65
2019-02-25T21:46:53.789Z,81.61
2019-02-25T21:49:26.982Z,81.39
2019-02-25T21:51:55.197Z,81.63
2019-02-25T21:54:25.190Z,81.79
2019-02-25T21:56:55.232Z,81.71
2019-02-25T21:59:25.276Z,81.77
2019-02-25T22:01:57.386Z,81.62
2019-02-25T22:04:27.887Z,81.46
2019-02-25T22:06:58.524Z,81.37
2019-02-25T22:09:36.431Z,81.01
2019-02-25T22:12:02.035Z,81.13
2019-02-25T22:14:32.060Z,81.12
2019-02-25T22:17:02.373Z,81.10
2019-02-25T22:19:35.031Z,81.16
2019-02-25T22:22:04.939Z,81.09
2019-02-25T22:24:38.192Z,81.20
2019-02-25T22:27:08.247Z,81.19
2019-02-25T22:29:38.634Z,81.09
2019-02-25T22:32:10.977Z,81.23
2019-02-25T22:34:41.191Z,81.21
2019-02-25T22:37:14.769Z,81.28
2019-02-25T22:39:43.940Z,81.45
2019-02-25T22:42:14.413Z,82.30
2019-02-25T22:44:45.205Z,82.39
2019-02-25T22:47:18.256Z,82.85
2019-02-25T22:49:48.726Z,82.94
2019-02-25T22:52:21.837Z,82.70
2019-02-25T22:54:52.216Z,83.08
2019-02-25T22:57:25.221Z,82.60
2019-02-25T22:59:55.376Z,82.46
2019-02-25T23:02:28.066Z,82.92
2019-02-25T23:04:58.128Z,81.84
2019-02-25T23:07:28.536Z,81.98
2019-02-25T23:09:58.774Z,81.46
2019-02-25T23:12:31.023Z,81.30
2019-02-25T23:15:03.861Z,81.18
2019-02-25T23:17:37.117Z,81.27
2019-02-25T23:20:07.730Z,81.60
2019-02-25T23:22:39.138Z,81.54
2019-02-25T23:25:09.561Z,81.56
2019-02-25T23:27:39.845Z,81.61
2019-02-25T23:30:10.092Z,81.22
2019-02-25T23:32:40.238Z,81.21
2019-02-25T23:35:13.622Z,81.35
2019-02-25T23:37:45.113Z,81.23
2019-02-25T23:40:16.801Z,81.15
2019-02-25T23:42:49.130Z,81.07
2019-02-25T23:45:21.081Z,81.17
2019-02-25T23:47:55.339Z,81.52
2019-02-25T23:50:25.685Z,81.96
2019-02-25T23:52:55.856Z,82.08
2019-02-25T23:55:27.777Z,82.21
2019-02-25T23:57:57.908Z,82.30
